Time;durP1;ratioP1;P1;durP2;ratioP2;P2;SDS_P1;SDS_P2;PMS_P1;PMS_P2;Temp;Humidity;BMP_temperature;BMP_pressure;BME280_temperature;BME280_humidity;BME280_pressure;Samples;Min_cycle;Max_cycle;Signal;HPM_P1;HPM_P2
2023/07/27 00:00:57;;;;;;;4.90;3.45;;;;;;;;;;4950829;28;20338;-72
2023/07/27 00:03:23;;;;;;;6.30;3.60;;;;;;;;;;4959332;28;20204;-72
2023/07/27 00:05:48;;;;;;;6.50;3.72;;;;;;;;;;4940198;28;20196;-72
2023/07/27 00:08:13;;;;;;;4.88;3.63;;;;;;;;;;4981728;22;20250;-67
2023/07/27 00:10:38;;;;;;;6.80;3.75;;;;;;;;;;4985695;28;20578;-69
2023/07/27 00:13:04;;;;;;;4.88;2.92;;;;;;;;;;4984923;28;21631;-69
2023/07/27 00:15:29;;;;;;;7.55;4.28;;;;;;;;;;4983565;28;20283;-69
2023/07/27 00:17:54;;;;;;;11.07;4.07;;;;;;;;;;4979553;28;20203;-69
2023/07/27 00:20:19;;;;;;;6.43;3.90;;;;;;;;;;4976849;28;20615;-69
2023/07/27 00:22:45;;;;;;;7.22;4.32;;;;;;;;;;4974816;28;20272;-69
2023/07/27 00:25:10;;;;;;;6.93;3.40;;;;;;;;;;4972290;28;20190;-69
2023/07/27 00:27:35;;;;;;;6.15;4.35;;;;;;;;;;4974335;28;20340;-70
2023/07/27 00:30:00;;;;;;;5.13;3.80;;;;;;;;;;4977263;28;20251;-70
2023/07/27 00:32:25;;;;;;;5.20;3.78;;;;;;;;;;4980712;28;20820;-69
2023/07/27 00:34:51;;;;;;;8.68;4.30;;;;;;;;;;4982297;28;20179;-70
2023/07/27 00:37:17;;;;;;;8.32;4.38;;;;;;;;;;4980509;28;20214;-70
2023/07/27 00:39:42;;;;;;;7.43;4.35;;;;;;;;;;4975556;28;20196;-70
2023/07/27 00:42:07;;;;;;;6.05;3.90;;;;;;;;;;4973750;28;20668;-70
2023/07/27 00:44:32;;;;;;;4.78;3.60;;;;;;;;;;4979599;28;20194;-69
2023/07/27 00:46:58;;;;;;;5.03;4.10;;;;;;;;;;4977739;28;20212;-70
2023/07/27 00:49:23;;;;;;;6.20;3.88;;;;;;;;;;4980568;28;20216;-70
2023/07/27 00:51:48;;;;;;;5.43;3.72;;;;;;;;;;4978594;28;20213;-69
2023/07/27 00:54:15;;;;;;;5.03;3.72;;;;;;;;;;4979767;28;20650;-71
2023/07/27 00:56:40;;;;;;;7.38;4.30;;;;;;;;;;4983670;28;20757;-71
2023/07/27 00:59:05;;;;;;;8.48;4.00;;;;;;;;;;4978520;28;20207;-71
2023/07/27 01:01:31;;;;;;;6.80;3.67;;;;;;;;;;4974697;28;20191;-71
2023/07/27 01:03:56;;;;;;;5.65;3.70;;;;;;;;;;4978006;28;20184;-70
2023/07/27 01:06:22;;;;;;;7.72;4.03;;;;;;;;;;4980137;28;20227;-69
2023/07/27 01:08:47;;;;;;;7.60;3.70;;;;;;;;;;4978939;28;20227;-70
2023/07/27 01:11:36;;;;;;;8.25;3.95;;;;;;;;;;4976432;28;20199;-71
2023/07/27 01:14:04;;;;;;;4.90;3.67;;;;;;;;;;4977939;28;20305;-70
2023/07/27 01:16:42;;;;;;;8.23;4.05;;;;;;;;;;4978649;28;20179;-70
2023/07/27 01:19:30;;;;;;;4.85;3.10;;;;;;;;;;4977541;28;20210;-70
2023/07/27 01:22:04;;;;;;;7.70;3.25;;;;;;;;;;4978191;28;20215;-70
2023/07/27 01:24:35;;;;;;;4.03;2.65;;;;;;;;;;4980465;28;20218;-70
2023/07/27 01:27:10;;;;;;;4.72;2.83;;;;;;;;;;4971466;28;20242;-69
2023/07/27 01:29:52;;;;;;;5.45;3.17;;;;;;;;;;4977675;28;20677;-69
2023/07/27 01:32:19;;;;;;;3.50;2.90;;;;;;;;;;4979122;28;20265;-69
2023/07/27 01:34:46;;;;;;;4.78;2.75;;;;;;;;;;4977614;28;20922;-69
2023/07/27 01:37:13;;;;;;;3.90;2.47;;;;;;;;;;4978030;28;20214;-69
2023/07/27 01:39:40;;;;;;;4.13;2.97;;;;;;;;;;4975235;28;20203;-69
2023/07/27 01:42:06;;;;;;;3.30;2.40;;;;;;;;;;4978688;28;20188;-70
2023/07/27 01:44:32;;;;;;;4.50;2.97;;;;;;;;;;4977055;28;20239;-69
2023/07/27 01:46:58;;;;;;;6.28;3.00;;;;;;;;;;4975370;28;21001;-69
2023/07/27 01:49:24;;;;;;;5.13;2.53;;;;;;;;;;4975195;28;20748;-68
2023/07/27 01:51:49;;;;;;;4.38;2.75;;;;;;;;;;4978202;28;20179;-69
2023/07/27 01:54:15;;;;;;;6.00;2.70;;;;;;;;;;4978169;28;20194;-69
2023/07/27 01:56:40;;;;;;;3.13;2.40;;;;;;;;;;4978096;28;20853;-69
2023/07/27 01:59:06;;;;;;;4.82;2.63;;;;;;;;;;4975982;28;20321;-70
2023/07/27 02:01:31;;;;;;;5.20;3.20;;;;;;;;;;4978494;28;20188;-70
2023/07/27 02:03:57;;;;;;;3.63;2.65;;;;;;;;;;4978364;28;20183;-69
2023/07/27 02:06:23;;;;;;;4.55;3.28;;;;;;;;;;4977560;28;20668;-70
2023/07/27 02:08:48;;;;;;;4.53;3.13;;;;;;;;;;4977297;28;20219;-69
2023/07/27 02:11:16;;;;;;;7.25;4.43;;;;;;;;;;4978996;28;20191;-69
2023/07/27 02:13:47;;;;;;;7.20;3.67;;;;;;;;;;4977654;28;20218;-69
2023/07/27 02:16:27;;;;;;;6.07;3.35;;;;;;;;;;4980000;28;20183;-70
2023/07/27 02:18:54;;;;;;;7.25;3.45;;;;;;;;;;4979193;28;20195;-69
2023/07/27 02:21:20;;;;;;;4.40;3.45;;;;;;;;;;4979834;28;20183;-70
2023/07/27 02:23:46;;;;;;;6.43;3.88;;;;;;;;;;4978694;28;20558;-69
2023/07/27 02:26:11;;;;;;;5.65;3.63;;;;;;;;;;4978589;28;20642;-68
2023/07/27 02:28:36;;;;;;;5.32;3.35;;;;;;;;;;4976445;28;20350;-69
2023/07/27 02:31:02;;;;;;;5.68;2.95;;;;;;;;;;4977435;28;20565;-69
2023/07/27 02:33:27;;;;;;;4.15;3.28;;;;;;;;;;4974680;28;20646;-69
2023/07/27 02:35:54;;;;;;;4.47;3.00;;;;;;;;;;4978782;28;20180;-68
2023/07/27 02:38:20;;;;;;;4.22;2.60;;;;;;;;;;4974617;28;20241;-68
2023/07/27 02:40:45;;;;;;;4.57;3.25;;;;;;;;;;4977117;28;20196;-70
2023/07/27 02:43:10;;;;;;;4.75;2.80;;;;;;;;;;4976739;28;20195;-70
2023/07/27 02:45:35;;;;;;;6.60;4.15;;;;;;;;;;4979602;28;20626;-70
2023/07/27 02:48:01;;;;;;;6.97;3.97;;;;;;;;;;4970586;28;20713;-70
2023/07/27 02:50:26;;;;;;;7.50;4.80;;;;;;;;;;4977070;28;20196;-70
2023/07/27 02:52:51;;;;;;;5.65;4.15;;;;;;;;;;4977974;28;20207;-70
2023/07/27 02:55:16;;;;;;;6.43;4.05;;;;;;;;;;4977678;28;20187;-70
2023/07/27 02:57:42;;;;;;;6.10;3.80;;;;;;;;;;4974794;28;20234;-69
2023/07/27 03:00:09;;;;;;;9.73;4.78;;;;;;;;;;4976474;28;20306;-70
2023/07/27 03:02:34;;;;;;;6.53;4.75;;;;;;;;;;4974456;28;20215;-70
2023/07/27 03:04:59;;;;;;;6.50;3.90;;;;;;;;;;4976924;28;20295;-70
2023/07/27 03:07:24;;;;;;;5.60;4.30;;;;;;;;;;4974469;28;20576;-69
2023/07/27 03:09:50;;;;;;;6.80;4.45;;;;;;;;;;4975462;28;20249;-69
2023/07/27 03:12:16;;;;;;;7.32;4.88;;;;;;;;;;4976516;28;20211;-69
2023/07/27 03:14:41;;;;;;;7.40;5.00;;;;;;;;;;4977435;28;20269;-69
2023/07/27 03:17:08;;;;;;;9.00;5.15;;;;;;;;;;4976205;28;20302;-70
2023/07/27 03:19:33;;;;;;;10.25;6.60;;;;;;;;;;4977198;28;20680;-70
2023/07/27 03:21:58;;;;;;;7.78;5.53;;;;;;;;;;4976182;28;20245;-69
2023/07/27 03:24:23;;;;;;;10.07;7.07;;;;;;;;;;4977307;28;20657;-70
2023/07/27 03:26:49;;;;;;;9.15;7.15;;;;;;;;;;4976698;28;20188;-69
2023/07/27 03:29:14;;;;;;;11.80;8.40;;;;;;;;;;4976663;28;20233;-70
2023/07/27 03:31:39;;;;;;;11.95;8.13;;;;;;;;;;4979186;28;20187;-70
2023/07/27 03:34:04;;;;;;;10.70;7.75;;;;;;;;;;4977967;28;20266;-70
2023/07/27 03:36:30;;;;;;;13.63;8.57;;;;;;;;;;4974412;28;20911;-70
2023/07/27 03:38:55;;;;;;;12.20;8.15;;;;;;;;;;4975694;28;20212;-70
2023/07/27 03:41:20;;;;;;;15.63;9.70;;;;;;;;;;4978493;28;20222;-69
2023/07/27 03:43:45;;;;;;;13.50;8.55;;;;;;;;;;4975474;28;20275;-69
2023/07/27 03:46:10;;;;;;;13.32;8.88;;;;;;;;;;4977406;28;20188;-70
2023/07/27 03:48:36;;;;;;;10.82;8.57;;;;;;;;;;4974294;28;20215;-69
2023/07/27 03:51:02;;;;;;;15.93;9.70;;;;;;;;;;4975679;28;20188;-71
2023/07/27 03:53:27;;;;;;;17.63;9.35;;;;;;;;;;4974521;28;20203;-69
2023/07/27 03:55:52;;;;;;;16.48;8.88;;;;;;;;;;4975602;28;20194;-68
2023/07/27 03:58:18;;;;;;;15.52;9.15;;;;;;;;;;4975047;28;20211;-69
2023/07/27 04:00:43;;;;;;;14.70;8.82;;;;;;;;;;4974005;28;20196;-69
2023/07/27 04:03:08;;;;;;;12.65;8.27;;;;;;;;;;4976068;28;20191;-70
2023/07/27 04:05:33;;;;;;;16.08;9.68;;;;;;;;;;4976026;28;20198;-70
2023/07/27 04:07:58;;;;;;;12.50;8.50;;;;;;;;;;4976088;28;20211;-69
2023/07/27 04:10:24;;;;;;;16.50;10.27;;;;;;;;;;4978217;28;20710;-70
2023/07/27 04:12:50;;;;;;;12.07;7.82;;;;;;;;;;4977199;28;20614;-70
2023/07/27 04:15:15;;;;;;;13.80;9.45;;;;;;;;;;4975699;28;20561;-69
2023/07/27 04:17:40;;;;;;;12.80;8.35;;;;;;;;;;4976329;28;20214;-70
2023/07/27 04:20:07;;;;;;;15.70;8.73;;;;;;;;;;4975141;28;20271;-70
2023/07/27 04:22:32;;;;;;;14.10;9.00;;;;;;;;;;4976440;28;20234;-70
2023/07/27 04:24:58;;;;;;;15.27;8.82;;;;;;;;;;4976666;28;20230;-70
2023/07/27 04:27:23;;;;;;;13.60;8.32;;;;;;;;;;4974703;28;20279;-70
2023/07/27 04:29:48;;;;;;;11.70;7.63;;;;;;;;;;4977654;28;20692;-70
2023/07/27 04:32:13;;;;;;;12.25;7.50;;;;;;;;;;4976016;28;20632;-70
2023/07/27 04:34:39;;;;;;;10.20;6.38;;;;;;;;;;4973002;28;20921;-70
2023/07/27 04:37:04;;;;;;;9.73;7.35;;;;;;;;;;4972259;28;20176;-69
2023/07/27 04:39:29;;;;;;;14.98;6.95;;;;;;;;;;4976069;28;20548;-70
2023/07/27 04:41:54;;;;;;;10.70;7.22;;;;;;;;;;4977028;28;20187;-70
2023/07/27 04:44:19;;;;;;;9.00;6.68;;;;;;;;;;4976189;28;20210;-70
2023/07/27 04:46:45;;;;;;;13.32;7.53;;;;;;;;;;4974830;28;20215;-70
2023/07/27 04:49:10;;;;;;;10.18;6.68;;;;;;;;;;4976925;28;20751;-70
2023/07/27 04:51:35;;;;;;;10.23;6.22;;;;;;;;;;4967412;28;20958;-70
2023/07/27 04:54:01;;;;;;;8.65;5.57;;;;;;;;;;4973975;28;20211;-70
2023/07/27 04:56:26;;;;;;;10.43;6.60;;;;;;;;;;4976253;28;20187;-69
2023/07/27 04:58:51;;;;;;;10.68;6.10;;;;;;;;;;4975652;28;20250;-70
2023/07/27 05:01:16;;;;;;;10.73;6.57;;;;;;;;;;4975134;28;20236;-69
2023/07/27 05:03:42;;;;;;;9.27;6.00;;;;;;;;;;4977001;28;20271;-70
2023/07/27 05:06:07;;;;;;;8.48;6.18;;;;;;;;;;4973259;28;20275;-70
2023/07/27 05:08:32;;;;;;;7.93;5.68;;;;;;;;;;4974511;28;20338;-70
2023/07/27 05:10:57;;;;;;;8.50;5.35;;;;;;;;;;4974801;28;20188;-70
2023/07/27 05:13:23;;;;;;;7.60;4.78;;;;;;;;;;4976951;28;20216;-70
2023/07/27 05:15:48;;;;;;;8.48;5.47;;;;;;;;;;4975402;28;20183;-70
2023/07/27 05:18:14;;;;;;;7.82;5.50;;;;;;;;;;4976219;28;20986;-70
2023/07/27 05:20:40;;;;;;;7.65;5.00;;;;;;;;;;4978230;28;20187;-70
2023/07/27 05:23:05;;;;;;;7.07;5.32;;;;;;;;;;4977338;28;20183;-70
2023/07/27 05:25:30;;;;;;;15.32;5.70;;;;;;;;;;4976692;28;20323;-70
2023/07/27 05:27:55;;;;;;;6.93;5.07;;;;;;;;;;4973619;28;20212;-71
2023/07/27 05:30:20;;;;;;;6.13;4.63;;;;;;;;;;4979042;28;20643;-70
2023/07/27 05:32:46;;;;;;;11.88;5.55;;;;;;;;;;4976975;28;20250;-70
2023/07/27 05:35:11;;;;;;;4.50;4.03;;;;;;;;;;4979679;28;20184;-70
2023/07/27 05:37:37;;;;;;;6.20;4.10;;;;;;;;;;4977776;28;20236;-70
2023/07/27 05:40:04;;;;;;;5.63;4.38;;;;;;;;;;4974757;28;20191;-70
2023/07/27 05:42:29;;;;;;;6.05;4.20;;;;;;;;;;4977246;28;20217;-70
2023/07/27 05:44:54;;;;;;;4.57;3.97;;;;;;;;;;4980011;28;20192;-70
2023/07/27 05:47:20;;;;;;;4.20;3.75;;;;;;;;;;4978981;28;20188;-70
2023/07/27 05:49:45;;;;;;;4.95;3.78;;;;;;;;;;4978553;28;20183;-70
2023/07/27 05:52:10;;;;;;;5.57;4.13;;;;;;;;;;4974203;28;20291;-70
2023/07/27 05:54:36;;;;;;;5.15;3.88;;;;;;;;;;4979146;28;20184;-70
2023/07/27 05:57:01;;;;;;;4.00;3.53;;;;;;;;;;4977997;28;20192;-69
2023/07/27 05:59:26;;;;;;;5.65;3.70;;;;;;;;;;4977168;28;21050;-70
2023/07/27 06:01:51;;;;;;;5.13;3.67;;;;;;;;;;4972655;28;20258;-70
2023/07/27 06:04:17;;;;;;;4.03;3.60;;;;;;;;;;4975447;28;20193;-70
2023/07/27 06:06:44;;;;;;;6.00;3.88;;;;;;;;;;4975729;28;20246;-70
2023/07/27 06:09:09;;;;;;;4.97;3.47;;;;;;;;;;4990116;23;20331;-78
2023/07/27 06:11:34;;;;;;;5.10;3.40;;;;;;;;;;4969772;28;20192;-77
2023/07/27 06:13:59;;;;;;;3.05;2.72;;;;;;;;;;4973911;28;20989;-77
2023/07/27 06:16:25;;;;;;;4.85;3.45;;;;;;;;;;4958323;28;20198;-77
2023/07/27 06:18:50;;;;;;;3.83;3.20;;;;;;;;;;4976776;28;20206;-77
2023/07/27 06:21:15;;;;;;;3.45;3.15;;;;;;;;;;4974053;28;20187;-77
2023/07/27 06:23:41;;;;;;;3.30;3.00;;;;;;;;;;4975250;28;21031;-76
2023/07/27 06:26:06;;;;;;;3.38;2.90;;;;;;;;;;4978665;28;20689;-76
2023/07/27 06:28:32;;;;;;;4.05;3.08;;;;;;;;;;4956942;28;20207;-75
2023/07/27 06:30:57;;;;;;;3.38;2.97;;;;;;;;;;4953926;28;21333;-76
2023/07/27 06:33:22;;;;;;;4.28;3.10;;;;;;;;;;4975749;28;20219;-75
2023/07/27 06:35:47;;;;;;;3.45;3.15;;;;;;;;;;4979473;28;20190;-76
2023/07/27 06:38:13;;;;;;;4.63;3.35;;;;;;;;;;4958006;28;20776;-76
2023/07/27 06:40:38;;;;;;;3.35;3.05;;;;;;;;;;4956382;28;20187;-76
2023/07/27 06:43:03;;;;;;;4.03;2.67;;;;;;;;;;4976109;28;20196;-76
2023/07/27 06:45:28;;;;;;;2.72;2.53;;;;;;;;;;4979201;28;20195;-76
2023/07/27 06:47:54;;;;;;;3.20;2.90;;;;;;;;;;4977250;28;20645;-76
2023/07/27 06:50:19;;;;;;;3.92;3.35;;;;;;;;;;4976564;28;20247;-75
2023/07/27 06:52:44;;;;;;;3.72;3.33;;;;;;;;;;4959277;28;20203;-76
2023/07/27 06:55:10;;;;;;;5.22;3.35;;;;;;;;;;4971075;28;20246;-76
2023/07/27 06:57:35;;;;;;;4.85;3.55;;;;;;;;;;4975123;28;20693;-74
2023/07/27 07:00:00;;;;;;;3.30;2.90;;;;;;;;;;4977091;28;20713;-76
2023/07/27 07:02:26;;;;;;;3.58;3.28;;;;;;;;;;4971123;28;20183;-75
2023/07/27 07:04:51;;;;;;;3.10;2.90;;;;;;;;;;4957327;28;20203;-76
2023/07/27 07:07:16;;;;;;;3.53;3.22;;;;;;;;;;4977494;28;20219;-76
2023/07/27 07:09:42;;;;;;;3.25;2.78;;;;;;;;;;4974435;28;20222;-76
2023/07/27 07:12:07;;;;;;;3.40;3.10;;;;;;;;;;4957432;28;20199;-77
2023/07/27 07:14:33;;;;;;;3.50;3.20;;;;;;;;;;4966363;28;20544;-75
2023/07/27 07:16:58;;;;;;;3.25;2.90;;;;;;;;;;4977584;28;20258;-76
2023/07/27 07:19:24;;;;;;;2.58;2.38;;;;;;;;;;4971126;28;20261;-76
2023/07/27 07:21:49;;;;;;;3.20;2.92;;;;;;;;;;4960849;28;20184;-74
2023/07/27 07:24:14;;;;;;;3.30;3.00;;;;;;;;;;4979297;28;20901;-75
2023/07/27 07:26:39;;;;;;;3.85;3.13;;;;;;;;;;4973690;28;20560;-76
2023/07/27 07:29:05;;;;;;;3.40;3.10;;;;;;;;;;4973854;28;20214;-75
2023/07/27 07:31:30;;;;;;;2.67;2.40;;;;;;;;;;4971191;28;20191;-74
2023/07/27 07:33:55;;;;;;;2.60;2.40;;;;;;;;;;4976129;28;20947;-75
2023/07/27 07:36:21;;;;;;;2.72;2.38;;;;;;;;;;4974725;28;20216;-75
2023/07/27 07:38:47;;;;;;;2.50;2.30;;;;;;;;;;4971343;28;20345;-75
2023/07/27 07:41:12;;;;;;;2.17;1.98;;;;;;;;;;4976767;28;20674;-76
2023/07/27 07:43:39;;;;;;;1.73;1.52;;;;;;;;;;4978833;28;20211;-73
2023/07/27 07:46:04;;;;;;;1.00;0.90;;;;;;;;;;4974867;28;20188;-76
2023/07/27 07:48:29;;;;;;;1.27;1.10;;;;;;;;;;4979083;28;20268;-76
2023/07/27 07:50:55;;;;;;;1.25;1.10;;;;;;;;;;4977995;28;20206;-77
2023/07/27 07:53:20;;;;;;;1.23;1.00;;;;;;;;;;4961433;28;20207;-76
2023/07/27 07:55:45;;;;;;;1.70;1.20;;;;;;;;;;4936097;28;20187;-75
2023/07/27 07:58:10;;;;;;;2.15;0.77;;;;;;;;;;4957306;28;20304;-75
2023/07/27 08:00:36;;;;;;;1.40;1.30;;;;;;;;;;4943925;28;20315;-74
2023/07/27 08:03:01;;;;;;;1.17;0.80;;;;;;;;;;4935281;28;20636;-73
2023/07/27 08:05:26;;;;;;;1.33;1.23;;;;;;;;;;4955139;28;20548;-75
2023/07/27 08:07:51;;;;;;;2.03;1.30;;;;;;;;;;4937473;28;20190;-74
2023/07/27 08:10:17;;;;;;;0.90;0.90;;;;;;;;;;4953422;28;20958;-73
2023/07/27 08:12:42;;;;;;;1.17;1.08;;;;;;;;;;4954396;28;20349;-74
2023/07/27 08:15:07;;;;;;;1.63;1.13;;;;;;;;;;4955844;28;20176;-74
2023/07/27 08:17:32;;;;;;;1.38;1.27;;;;;;;;;;4960885;28;20663;-74
2023/07/27 08:19:58;;;;;;;1.27;0.98;;;;;;;;;;4950689;28;20212;-75
2023/07/27 08:22:24;;;;;;;1.10;0.88;;;;;;;;;;4955035;28;20250;-74
2023/07/27 08:24:49;;;;;;;1.40;0.90;;;;;;;;;;4938952;28;20262;-74
2023/07/27 08:27:15;;;;;;;1.13;1.02;;;;;;;;;;4962414;28;20188;-74
2023/07/27 08:29:40;;;;;;;1.05;0.90;;;;;;;;;;4955168;28;20222;-74
2023/07/27 08:32:05;;;;;;;0.95;0.77;;;;;;;;;;4937710;28;20188;-75
2023/07/27 08:34:31;;;;;;;1.05;0.88;;;;;;;;;;4954481;28;20212;-74
2023/07/27 08:36:56;;;;;;;1.08;0.95;;;;;;;;;;4954238;28;20663;-74
2023/07/27 08:39:21;;;;;;;1.45;0.98;;;;;;;;;;4954453;28;20386;-74
2023/07/27 08:41:47;;;;;;;0.93;0.70;;;;;;;;;;4957426;28;20187;-73
2023/07/27 08:44:13;;;;;;;0.93;0.73;;;;;;;;;;4959368;28;20261;-74
2023/07/27 08:46:38;;;;;;;1.35;1.02;;;;;;;;;;4955719;28;21809;-74
2023/07/27 08:49:04;;;;;;;1.23;1.00;;;;;;;;;;4953531;28;20226;-74
2023/07/27 08:51:33;;;;;;;1.50;0.95;;;;;;;;;;4934776;28;20188;-73
2023/07/27 08:53:58;;;;;;;0.90;0.68;;;;;;;;;;4957783;28;20257;-73
2023/07/27 08:56:23;;;;;;;1.58;0.88;;;;;;;;;;4960549;28;20184;-74
2023/07/27 08:58:49;;;;;;;1.20;1.00;;;;;;;;;;4964579;28;20215;-73
2023/07/27 09:01:15;;;;;;;1.50;1.00;;;;;;;;;;4977417;28;20492;-73
2023/07/27 09:03:42;;;;;;;0.98;0.80;;;;;;;;;;4943549;28;20674;-74
2023/07/27 09:06:07;;;;;;;4.47;1.13;;;;;;;;;;4960912;28;20226;-74
2023/07/27 09:08:33;;;;;;;1.52;1.20;;;;;;;;;;4959060;28;20797;-75
2023/07/27 09:11:05;;;;;;;1.25;1.08;;;;;;;;;;4960699;28;20186;-73
2023/07/27 09:13:31;;;;;;;1.33;1.23;;;;;;;;;;4960466;28;20705;-74
2023/07/27 09:15:56;;;;;;;1.50;1.40;;;;;;;;;;4958669;28;20282;-75
2023/07/27 09:18:21;;;;;;;1.38;1.27;;;;;;;;;;4959647;28;20208;-74
2023/07/27 09:20:47;;;;;;;1.67;1.50;;;;;;;;;;4958246;28;20682;-74
2023/07/27 09:23:18;;;;;;;1.88;1.45;;;;;;;;;;4958494;28;20237;-74
2023/07/27 09:25:52;;;;;;;2.15;1.30;;;;;;;;;;4957852;28;20646;-75
2023/07/27 09:28:22;;;;;;;2.00;1.30;;;;;;;;;;4937782;28;21037;-75
2023/07/27 09:30:49;;;;;;;1.83;1.42;;;;;;;;;;4957737;28;20617;-75
2023/07/27 09:33:14;;;;;;;2.17;1.98;;;;;;;;;;4942743;28;20270;-75
2023/07/27 09:35:40;;;;;;;1.50;1.40;;;;;;;;;;4959357;28;20183;-74
2023/07/27 09:38:05;;;;;;;3.03;1.80;;;;;;;;;;4961081;28;20658;-74
2023/07/27 09:40:32;;;;;;;1.52;1.40;;;;;;;;;;4938879;28;20202;-74
2023/07/27 09:42:57;;;;;;;2.22;1.85;;;;;;;;;;4956638;28;20188;-75
2023/07/27 09:45:22;;;;;;;2.10;1.70;;;;;;;;;;4957038;28;20195;-75
2023/07/27 09:47:48;;;;;;;5.38;1.52;;;;;;;;;;4943133;28;20184;-73
2023/07/27 09:50:14;;;;;;;2.78;1.33;;;;;;;;;;4958473;28;20925;-75
2023/07/27 09:52:40;;;;;;;1.25;1.00;;;;;;;;;;4939920;28;20218;-75
2023/07/27 09:55:06;;;;;;;2.75;1.52;;;;;;;;;;4958554;28;20188;-75
2023/07/27 09:57:31;;;;;;;1.83;1.25;;;;;;;;;;4956445;28;20190;-74
2023/07/27 09:59:57;;;;;;;1.58;1.23;;;;;;;;;;4956974;28;20219;-75
2023/07/27 10:02:22;;;;;;;1.70;1.52;;;;;;;;;;4960626;28;20192;-75
2023/07/27 10:04:51;;;;;;;1.73;1.35;;;;;;;;;;4939670;28;20179;-76
2023/07/27 10:07:20;;;;;;;1.45;1.00;;;;;;;;;;4964944;28;20190;-74
2023/07/27 10:09:45;;;;;;;1.98;1.67;;;;;;;;;;4981454;28;20215;-74
2023/07/27 10:12:10;;;;;;;1.65;1.10;;;;;;;;;;4962000;28;20184;-74
2023/07/27 10:14:37;;;;;;;1.63;1.17;;;;;;;;;;4979680;28;20251;-74
2023/07/27 10:17:04;;;;;;;1.10;1.00;;;;;;;;;;4979990;28;20191;-74
2023/07/27 10:19:42;;;;;;;2.22;1.30;;;;;;;;;;4978613;28;20859;-73
2023/07/27 10:22:08;;;;;;;1.38;1.17;;;;;;;;;;4978654;28;20696;-73
2023/07/27 10:24:52;;;;;;;1.60;1.20;;;;;;;;;;4979039;28;20188;-76
2023/07/27 10:27:18;;;;;;;1.73;1.20;;;;;;;;;;4980897;28;20877;-76
2023/07/27 10:29:48;;;;;;;1.25;1.15;;;;;;;;;;4979731;28;20330;-75
2023/07/27 10:32:14;;;;;;;1.58;1.27;;;;;;;;;;4980289;28;20187;-75
2023/07/27 10:34:40;;;;;;;1.23;1.10;;;;;;;;;;4975793;28;20187;-76
2023/07/27 10:37:06;;;;;;;1.35;0.95;;;;;;;;;;4974301;28;20670;-74
2023/07/27 10:39:32;;;;;;;1.13;1.02;;;;;;;;;;4979499;28;20227;-75
2023/07/27 10:42:01;;;;;;;1.15;1.05;;;;;;;;;;4963076;28;20297;-75
2023/07/27 10:44:47;;;;;;;2.78;1.15;;;;;;;;;;4954853;28;20188;-75
2023/07/27 10:47:38;;;;;;;1.67;1.20;;;;;;;;;;4933808;28;20950;-76
2023/07/27 10:50:03;;;;;;;1.25;1.15;;;;;;;;;;4955853;28;20218;-76
2023/07/27 10:52:30;;;;;;;1.10;0.90;;;;;;;;;;4956583;28;20184;-74
2023/07/27 10:54:59;;;;;;;1.10;0.82;;;;;;;;;;4955999;28;20195;-75
2023/07/27 10:57:29;;;;;;;1.20;0.90;;;;;;;;;;4958281;28;20188;-74
2023/07/27 10:59:55;;;;;;;0.80;0.80;;;;;;;;;;4973580;28;20277;-75
2023/07/27 11:02:23;;;;;;;2.45;1.00;;;;;;;;;;4940122;28;20760;-73
2023/07/27 11:04:52;;;;;;;0.85;0.80;;;;;;;;;;4955517;28;20349;-75
2023/07/27 11:07:27;;;;;;;1.42;0.80;;;;;;;;;;4957607;28;20184;-74
2023/07/27 11:09:53;;;;;;;1.27;1.13;;;;;;;;;;4955214;28;20712;-74
2023/07/27 11:12:18;;;;;;;1.05;0.90;;;;;;;;;;4956632;28;20192;-74
2023/07/27 11:14:43;;;;;;;1.75;1.05;;;;;;;;;;4958333;28;20191;-75
2023/07/27 11:17:10;;;;;;;1.02;0.80;;;;;;;;;;4956177;28;20219;-74
2023/07/27 11:19:35;;;;;;;0.80;0.50;;;;;;;;;;4956634;28;20282;-74
2023/07/27 11:22:01;;;;;;;1.10;0.80;;;;;;;;;;4937774;28;20180;-75
2023/07/27 11:24:26;;;;;;;1.13;0.70;;;;;;;;;;4959386;28;20610;-74
2023/07/27 11:26:51;;;;;;;0.95;0.50;;;;;;;;;;4959403;28;20658;-74
2023/07/27 11:29:17;;;;;;;1.52;1.20;;;;;;;;;;4936198;28;20262;-76
2023/07/27 11:31:57;;;;;;;2.05;0.40;;;;;;;;;;4955507;28;20270;-75
2023/07/27 11:34:24;;;;;;;1.67;0.60;;;;;;;;;;4954483;28;20208;-75
2023/07/27 11:36:50;;;;;;;0.95;0.55;;;;;;;;;;4958256;28;20183;-73
2023/07/27 11:39:15;;;;;;;1.60;0.57;;;;;;;;;;4955244;28;20635;-72
2023/07/27 11:41:41;;;;;;;1.10;0.30;;;;;;;;;;4953709;28;21353;-76
2023/07/27 11:44:06;;;;;;;0.75;0.40;;;;;;;;;;4955932;28;20697;-71
2023/07/27 11:46:40;;;;;;;1.02;0.52;;;;;;;;;;4955261;28;20270;-73
2023/07/27 11:49:07;;;;;;;1.70;0.55;;;;;;;;;;4954063;28;20281;-73
2023/07/27 11:51:33;;;;;;;2.08;0.80;;;;;;;;;;4954075;28;20696;-74
2023/07/27 11:53:59;;;;;;;1.00;0.70;;;;;;;;;;4969492;28;20239;-74
2023/07/27 11:56:24;;;;;;;0.63;0.57;;;;;;;;;;4965682;28;20569;-73
2023/07/27 11:58:50;;;;;;;0.70;0.60;;;;;;;;;;4961446;28;20781;-75
2023/07/27 12:01:15;;;;;;;0.90;0.60;;;;;;;;;;4937835;28;20184;-76
2023/07/27 12:03:42;;;;;;;0.80;0.63;;;;;;;;;;4956109;28;20189;-73
2023/07/27 12:06:07;;;;;;;0.98;0.40;;;;;;;;;;4956072;28;20630;-70
2023/07/27 12:08:35;;;;;;;1.58;0.57;;;;;;;;;;4955712;28;20753;-74
2023/07/27 12:11:00;;;;;;;2.47;0.90;;;;;;;;;;4956030;28;20274;-74
2023/07/27 12:13:26;;;;;;;0.70;0.57;;;;;;;;;;4935600;28;20270;-72
2023/07/27 12:15:58;;;;;;;1.65;0.50;;;;;;;;;;4969790;28;20748;-72
2023/07/27 12:18:25;;;;;;;1.70;0.57;;;;;;;;;;4962948;28;20207;-74
2023/07/27 12:20:51;;;;;;;1.83;0.77;;;;;;;;;;4955810;28;20191;-74
2023/07/27 12:23:16;;;;;;;2.80;0.75;;;;;;;;;;4954105;28;20741;-75
2023/07/27 12:25:41;;;;;;;5.03;0.80;;;;;;;;;;4935051;28;20195;-74
2023/07/27 12:28:08;;;;;;;2.35;1.08;;;;;;;;;;4958190;28;20250;-74
2023/07/27 12:30:33;;;;;;;1.63;0.82;;;;;;;;;;4954923;28;21353;-75
2023/07/27 12:32:58;;;;;;;4.93;0.98;;;;;;;;;;4955546;28;20254;-75
2023/07/27 12:35:24;;;;;;;1.63;0.60;;;;;;;;;;4955027;28;20184;-75
2023/07/27 12:37:49;;;;;;;3.10;0.63;;;;;;;;;;4941888;28;20192;-73
2023/07/27 12:40:14;;;;;;;2.10;0.80;;;;;;;;;;4954510;28;20544;-74
2023/07/27 12:42:39;;;;;;;0.73;0.73;;;;;;;;;;4942663;28;20713;-70
2023/07/27 12:45:06;;;;;;;1.00;0.52;;;;;;;;;;4955242;28;20314;-75
2023/07/27 12:47:31;;;;;;;2.03;0.90;;;;;;;;;;4958672;28;20184;-73
2023/07/27 12:49:56;;;;;;;1.95;0.88;;;;;;;;;;4955292;28;20754;-76
2023/07/27 12:52:22;;;;;;;1.45;1.00;;;;;;;;;;4956274;28;20727;-74
2023/07/27 12:54:47;;;;;;;1.10;0.70;;;;;;;;;;4937773;28;20813;-75
2023/07/27 12:57:12;;;;;;;1.65;0.82;;;;;;;;;;4957036;28;20852;-73
2023/07/27 12:59:37;;;;;;;2.47;0.82;;;;;;;;;;4969104;28;20282;-71
2023/07/27 13:02:03;;;;;;;2.22;1.05;;;;;;;;;;4947890;28;20778;-72
2023/07/27 13:04:28;;;;;;;1.60;1.00;;;;;;;;;;4955171;28;20941;-73
2023/07/27 13:06:53;;;;;;;5.10;1.60;;;;;;;;;;4959075;28;20527;-73
2023/07/27 13:09:19;;;;;;;3.55;1.20;;;;;;;;;;4959929;28;21065;-73
2023/07/27 13:11:45;;;;;;;4.60;1.88;;;;;;;;;;4976857;28;20665;-74
2023/07/27 13:14:10;;;;;;;3.15;1.90;;;;;;;;;;4978035;28;20243;-73
2023/07/27 13:16:35;;;;;;;3.83;2.80;;;;;;;;;;4976770;28;20565;-75
2023/07/27 13:19:01;;;;;;;8.05;3.13;;;;;;;;;;4980107;28;20215;-73
2023/07/27 13:21:26;;;;;;;6.93;2.88;;;;;;;;;;4974372;28;20187;-74
2023/07/27 13:23:51;;;;;;;10.27;3.38;;;;;;;;;;4957584;28;20287;-75
2023/07/27 13:26:17;;;;;;;9.88;3.60;;;;;;;;;;4937983;28;20193;-73
2023/07/27 13:28:42;;;;;;;5.72;3.50;;;;;;;;;;4938730;28;20207;-74
2023/07/27 13:31:10;;;;;;;9.20;3.08;;;;;;;;;;4957172;28;20196;-74
2023/07/27 13:33:35;;;;;;;5.85;2.90;;;;;;;;;;4936448;28;20243;-73
2023/07/27 13:36:01;;;;;;;7.15;3.58;;;;;;;;;;4938105;28;20189;-73
2023/07/27 13:38:26;;;;;;;7.38;2.85;;;;;;;;;;4956459;28;20204;-75
2023/07/27 13:40:51;;;;;;;9.90;3.20;;;;;;;;;;4957542;28;20184;-73
2023/07/27 13:43:16;;;;;;;7.60;3.28;;;;;;;;;;4956884;28;20234;-75
2023/07/27 13:45:41;;;;;;;12.93;3.08;;;;;;;;;;4956349;28;20191;-71
2023/07/27 13:48:07;;;;;;;5.05;2.55;;;;;;;;;;4960305;28;20343;-70
2023/07/27 13:50:32;;;;;;;6.15;2.30;;;;;;;;;;4939967;28;20195;-72
2023/07/27 13:52:57;;;;;;;6.57;2.90;;;;;;;;;;4955353;28;20211;-74
2023/07/27 13:55:22;;;;;;;4.90;2.42;;;;;;;;;;4956648;28;20218;-73
2023/07/27 13:57:48;;;;;;;4.55;2.20;;;;;;;;;;4967770;28;20305;-73
2023/07/27 14:00:13;;;;;;;5.93;2.10;;;;;;;;;;4943415;28;20219;-73
2023/07/27 14:02:38;;;;;;;4.05;2.75;;;;;;;;;;4955334;28;20302;-75
2023/07/27 14:05:04;;;;;;;5.75;3.63;;;;;;;;;;4959683;28;20188;-74
2023/07/27 14:07:30;;;;;;;8.68;2.72;;;;;;;;;;4959158;28;20569;-73
2023/07/27 14:09:56;;;;;;;10.05;3.25;;;;;;;;;;4957794;28;20330;-74
2023/07/27 14:12:22;;;;;;;9.88;3.20;;;;;;;;;;4956817;28;20276;-74
2023/07/27 14:14:47;;;;;;;7.80;3.00;;;;;;;;;;4959561;28;20220;-72
2023/07/27 14:17:12;;;;;;;9.43;3.22;;;;;;;;;;4944165;28;20998;-73
2023/07/27 14:19:37;;;;;;;14.70;4.35;;;;;;;;;;4957846;28;20705;-76
2023/07/27 14:22:02;;;;;;;9.07;3.28;;;;;;;;;;4955445;28;21572;-72
2023/07/27 14:24:28;;;;;;;7.63;3.80;;;;;;;;;;4938517;28;20282;-74
2023/07/27 14:26:53;;;;;;;9.30;3.95;;;;;;;;;;4959094;28;20230;-72
2023/07/27 14:29:18;;;;;;;6.72;3.33;;;;;;;;;;4958609;28;20218;-73
2023/07/27 14:31:43;;;;;;;12.23;4.55;;;;;;;;;;4957948;28;20188;-74
2023/07/27 14:34:10;;;;;;;8.50;3.65;;;;;;;;;;4957084;28;20216;-73